Flight Track Log - Related Links

Times and Time Zones

All times are in EDT time to prevent confusion due to time zone crossing. See the UAL4380 flight status page for this flight to view local times or setup timezone preferences in your user account.

Time Position Orientation Groundspeed Altitude Reporting Facility
EDT Latitude Longitude Course Direction KTS MPH feet Rate Location/Type
Fri 07:05:00 AM 30.7581 -88.3153 264° West 204 235 4,700  Level Houston Center
Fri 07:06:00 AM 30.7364 -88.3872 251° West 239 275 7,100 2,479 Climbing Houston Center
Fri 07:07:01 AM 30.7097 -88.4672 249° West 261 300 9,700 2,281 Climbing Houston Center
Fri 07:08:01 AM 30.7064 -88.5578 268° West 277 319 11,700 1,884 Climbing Houston Center
Fri 07:09:00 AM 30.6923 -88.7929 265° West  Level FlightAware Approximate
Fri 07:09:02 AM 30.6950 -88.6600 263° West 317 365 13,500  Level Houston Center
Fri 07:10:00 AM 30.6847 -88.8836 264° West  Level FlightAware Approximate
Fri 07:10:02 AM 30.6908 -88.7639 267° West 321 369 15,200  Level Houston Center
Fri 07:11:03 AM 30.6839 -88.8700 266° West 326 375 17,100 1,721 Climbing Houston Center
Fri 07:12:04 AM 30.6761 -88.9822 265° West 335 386 18,700 1,438 Climbing Houston Center
Fri 07:13:04 AM 30.6703 -89.0922 266° West 342 394 20,000 645 Climbing Houston Center
Fri 07:14:05 AM 30.6583 -89.2167 264° West 387 445 20,000 197 Level Houston Center
Fri 07:15:06 AM 30.6525 -89.3500 267° West 411 473 20,400 738 Climbing Houston Center
Fri 07:16:07 AM 30.6433 -89.4833 265° West 416 479 21,500 1,140 Climbing Houston Center
Fri 07:17:07 AM 30.6339 -89.6167 265° West 418 481 22,700 1,140 Climbing Houston Center
Fri 07:18:08 AM 30.6233 -89.7453 265° West 409 471 23,800 639 Climbing Houston Center
Fri 07:19:09 AM 30.6075 -89.8767 262° West 417 480 24,000 98 Climbing Houston Center
Fri 07:20:11 AM 30.6014 -90.0403 268° West 425 489 24,000  Level Houston Center
Fri 07:21:11 AM 30.5958 -90.1800 267° West 433 498 24,000  Level Houston Center
Fri 07:22:11 AM 30.5894 -90.3186 267° West 434 499 24,000 -50 Level Houston Center
Fri 07:23:12 AM 30.5892 -90.4586 270° West 434 499 23,900  Descending Houston Center
Fri 07:24:13 AM 30.5894 -90.5989 270° West 434 499 24,000 49 Climbing Houston Center
Fri 07:25:14 AM 30.5819 -90.7386 266° West 434 499 24,000  Level Houston Center
Fri 07:26:15 AM 30.5592 -90.8772 259° West 435 501 24,000 -49 Level Houston Center
Fri 07:27:16 AM 30.5264 -91.0139 254° West 439 505 23,900  Descending Houston Center
Fri 07:28:17 AM 30.4564 -91.1319 235° Southwest 454 522 24,000 49 Climbing Houston Center
Fri 07:29:18 AM 30.3844 -91.2472 234° Southwest 445 512 24,000  Level Houston Center
Fri 07:30:19 AM 30.3131 -91.3642 235° Southwest 448 516 24,000  Level Houston Center
Fri 07:31:20 AM 30.2622 -91.4939 246° West 446 513 24,000  Level Houston Center
Fri 07:32:21 AM 30.1964 -91.6486 244° Southwest 442 509 24,000  Level Houston Center
Fri 07:33:21 AM 30.1464 -91.7728 245° Southwest 440 506 24,000  Level Houston Center
Fri 07:34:22 AM 30.0936 -91.9006 245° Southwest 441 507 24,000  Level Houston Center
Fri 07:35:23 AM 30.0414 -92.0292 245° Southwest 442 509 24,000  Level Houston Center
Fri 07:36:24 AM 29.9989 -92.1606 250° West 440 506 24,000  Level Houston Center
Fri 07:37:25 AM 29.9581 -92.2939 251° West 440 506 24,000  Level Houston Center
Fri 07:38:26 AM 29.9172 -92.4269 251° West 440 506 24,000  Level Houston Center
Fri 07:39:27 AM 29.8775 -92.5594 251° West 439 505 24,000  Level Houston Center
Fri 07:40:28 AM 29.8367 -92.6928 251° West 440 506 24,000  Level Houston Center
Fri 07:41:29 AM 29.7972 -92.8267 251° West 441 507 24,000  Level Houston Center
Fri 07:42:30 AM 29.7581 -92.9597 251° West 439 505 24,000  Level Houston Center
Fri 07:43:31 AM 29.7186 -93.0939 251° West 442 509 24,000  Level Houston Center
Fri 07:44:32 AM 29.6786 -93.2292 251° West 444 511 24,000  Level Houston Center
Fri 07:45:34 AM 29.6322 -93.3911 252° West 442 509 24,000 -293 Level Houston Center
Fri 07:46:35 AM 29.5928 -93.5247 251° West 442 509 23,400 -836 Descending Houston Center
Fri 07:47:36 AM 29.5547 -93.6572 252° West 437 503 22,300 -1,377 Descending Houston Center
Fri 07:48:37 AM 29.5178 -93.7914 252° West 440 506 20,600 -1,721 Descending Houston Center
Fri 07:49:38 AM 29.5031 -93.9231 263° West 419 482 18,800 -1,785 Descending Houston Center
Fri 07:50:38 AM 29.5047 -94.0511 271° West 399 459 17,000 -1,983 Descending Houston Center
Fri 07:51:33 AM 29.5003 -94.1742 268° West 397 457 15,000 -2,017 Descending Houston Center
Fri 07:52:34 AM 29.5144 -94.2947 278° West 381 438 13,100 -984 Descending Houston Center
Fri 07:53:35 AM 29.5339 -94.4028 282° West 323 372 13,000 -462 Descending Houston Center
Fri 07:54:44 AM 29.5903 -94.5031 303° West 333 383 12,100 -893 Descending Houston Center
Fri 07:55:36 AM 29.6303 -94.5925 297° West 338 389 11,200 -1,009 Descending Houston Center
Fri 07:56:37 AM 29.6703 -94.6811 297° West 294 338 10,200 -934 Descending Houston Center
Fri 07:57:38 AM 29.7058 -94.7656 296° West 302 348 9,300 -984 Descending Houston Center
Fri 07:58:39 AM 29.7411 -94.8478 296° West 272 313 8,200 -1,033 Descending Houston Center
Fri 07:59:40 AM 29.7761 -94.9303 296° West 274 315 7,200 -983 Descending Houston Center
Fri 08:00:35 AM 29.8058 -94.9986 297° West 274 315 6,300 -845 Descending Houston Center
Fri 08:00:51 AM 29.8117 -95.0081 305° West 275 316 6,200 -295 Descending Houston Center
Fri 08:01:36 AM 29.8408 -95.0811 295° West 266 306 6,000 -197 Descending Houston Center
Fri 08:01:52 AM 29.8500 -95.0994 300° West 267 307 6,000  Level Houston Center
Fri 08:02:36 AM 29.8731 -95.1567 295° West 261 300 6,000  Level Houston Center
Fri 08:02:54 AM 29.8831 -95.1742 303° West 264 304 6,000  Level Houston Center
Fri 08:03:37 AM 29.8950 -95.2358 283° West 264 304 6,000  Level Houston Center
Fri 08:03:55 AM 29.8967 -95.2550 276° West 263 303 6,000  Level Houston Center
Fri 08:04:38 AM 29.9008 -95.3197 274° West 260 299 6,000  Level Houston Center
Fri 08:04:56 AM 29.9017 -95.3372 273° West 260 299 6,000  Level Houston Center
Fri 08:05:39 AM 29.9044 -95.4058 273° West 270 311 6,000  Level Houston Center
Fri 08:05:57 AM 29.9064 -95.4214 278° West 263 303 6,000  Level Houston Center
Fri 08:06:40 AM 29.9103 -95.4944 274° West 268 308 6,000  Level Houston Center
Fri 08:06:59 AM 29.9122 -95.5072 280° West 268 308 6,000  Level Houston Center
Fri 08:07:41 AM 29.9161 -95.5806 274° West 270 311 6,000  Level Houston Center
Fri 08:08:00 AM 29.9181 -95.5925 281° West 268 308 6,000  Level Houston Center
Fri 08:08:42 AM 29.9228 -95.6567 275° West 222 255 6,000  Level Houston Center
Fri 08:09:01 AM 29.9244 -95.6681 280° West 248 285 6,000 -400 Level Houston Center
Fri 08:09:42 AM 29.9397 -95.7272 287° West 243 280 5,600 -677 Descending Houston Center
Fri 08:10:03 AM 29.9603 -95.7322 348° North 243 280 5,300 -590 Descending Houston Center
Fri 08:10:43 AM 29.9914 -95.6944 46° Northeast 235 270 5,000 -295 Descending Houston Center
Fri 08:11:04 AM 29.9942 -95.6747 81° East 232 267 5,000 -436 Level Houston Center
Fri 08:11:38 AM 29.9917 -95.6294 94° East 230 265 4,600 -689 Descending Houston Center
Fri 08:12:05 AM 29.9925 -95.5997 88° East 233 268 4,300 -984 Descending Houston Center
Fri 08:12:39 AM 29.9922 -95.5642 91° East 188 216 3,600 -1,065 Descending Houston Center
Fri 08:13:07 AM 29.9933 -95.5394 87° East 203 234 3,200 -984 Descending Houston Center
Fri 08:13:40 AM 29.9931 -95.5039 91° East 182 209 2,600 -984 Descending Houston Center
Fri 08:14:08 AM 29.9933 -95.4819 89° East 190 219 2,200 -787 Descending Houston Center
Fri 08:14:41 AM 29.9931 -95.4556 91° East 131 151 1,800 -689 Descending Houston Center
Fri 08:15:09 AM 29.9933 -95.4381 89° East 162 186 1,500 -689 Descending Houston Center
Fri 08:15:42 AM 29.9931 -95.4122 91° East 130 150 1,100 -677 Descending Houston Center
Fri 08:16:11 AM 29.9944 -95.3983 83° East 138 159 800 -716 Descending Houston Center
Fri 08:16:49 AM 29.9933 -95.3686 92° East 129 148 300 -197 Descending Houston Center
Fri 08:17:12 AM 29.9933 -95.3511 90° East 133 153 600 783 Climbing Houston Center

Login

Don't have an account? Register now (free) for customized features, flight alerts, and more!